Time;durP1;ratioP1;P1;durP2;ratioP2;P2;SDS_P1;SDS_P2;PMS_P1;PMS_P2;Temp;Humidity;BMP_temperature;BMP_pressure;BME280_temperature;BME280_humidity;BME280_pressure;Samples;Min_cycle;Max_cycle;Signal;HPM_P1;HPM_P2
2023/08/01 00:01:02;;;;;;;7.75;7.55;;;16.70;99.90;;;;;;6287050;22;20272;-86
2023/08/01 00:03:35;;;;;;;8.00;7.80;;;16.70;99.90;;;;;;6285177;22;20277;-85
2023/08/01 00:06:03;;;;;;;7.78;7.57;;;16.70;99.90;;;;;;6285354;22;20248;-85
2023/08/01 00:08:30;;;;;;;7.78;7.57;;;16.70;99.90;;;;;;6290672;22;20208;-85
2023/08/01 00:10:59;;;;;;;8.00;7.80;;;16.70;99.90;;;;;;6309695;22;20189;-86
2023/08/01 00:13:26;;;;;;;7.90;7.70;;;16.70;99.90;;;;;;6310604;22;20205;-86
2023/08/01 00:15:55;;;;;;;7.80;7.60;;;16.70;99.90;;;;;;6310925;22;20185;-85
2023/08/01 00:18:22;;;;;;;7.88;7.68;;;16.70;99.90;;;;;;6307719;22;20280;-85
2023/08/01 00:20:54;;;;;;;8.10;7.90;;;16.70;99.90;;;;;;6301094;22;20276;-85
2023/08/01 00:23:21;;;;;;;8.05;7.85;;;16.70;99.90;;;;;;6287782;22;20190;-86
2023/08/01 00:25:51;;;;;;;8.00;7.80;;;16.70;99.90;;;;;;6307478;22;20249;-86
2023/08/01 00:28:18;;;;;;;7.80;7.60;;;16.70;99.90;;;;;;6311555;22;20172;-86
2023/08/01 00:30:46;;;;;;;7.72;7.53;;;16.70;99.90;;;;;;6306344;22;20202;-86
2023/08/01 00:33:16;;;;;;;7.80;7.60;;;16.70;99.90;;;;;;6288219;22;20193;-85
2023/08/01 00:35:43;;;;;;;8.00;7.80;;;16.70;99.90;;;;;;6285972;22;20190;-85
2023/08/01 00:38:12;;;;;;;7.50;7.30;;;16.70;99.90;;;;;;6286398;22;20253;-85
2023/08/01 00:40:41;;;;;;;7.70;7.50;;;16.70;99.90;;;;;;6290604;22;20206;-85
2023/08/01 00:43:11;;;;;;;7.60;7.40;;;16.70;99.90;;;;;;6287064;22;20203;-85
2023/08/01 00:45:38;;;;;;;7.82;7.63;;;16.70;99.90;;;;;;6286080;22;20190;-85
2023/08/01 00:48:07;;;;;;;7.90;7.70;;;16.70;99.90;;;;;;6285691;22;20227;-85
2023/08/01 00:50:35;;;;;;;7.80;7.60;;;16.70;99.90;;;;;;6285348;22;20190;-85
2023/08/01 00:53:03;;;;;;;7.80;7.60;;;16.70;99.90;;;;;;6287476;22;20193;-85
2023/08/01 00:55:33;;;;;;;7.90;7.70;;;16.70;99.90;;;;;;6287699;22;20279;-85
2023/08/01 00:58:03;;;;;;;7.90;7.70;;;16.80;99.90;;;;;;6285915;22;20197;-86
2023/08/01 01:00:30;;;;;;;7.90;7.70;;;16.70;99.90;;;;;;6286301;22;20257;-85
2023/08/01 01:02:58;;;;;;;8.15;7.95;;;16.70;99.90;;;;;;6285294;22;20193;-85
2023/08/01 01:05:26;;;;;;;7.93;7.72;;;16.70;99.90;;;;;;6285351;22;20209;-85
2023/08/01 01:07:54;;;;;;;7.90;7.70;;;16.70;99.90;;;;;;6285714;22;20208;-85
2023/08/01 01:10:21;;;;;;;7.95;7.75;;;16.70;99.90;;;;;;6285005;22;20228;-86
2023/08/01 01:12:50;;;;;;;7.80;7.60;;;16.70;99.90;;;;;;6284852;22;20204;-86
2023/08/01 01:15:18;;;;;;;7.90;7.70;;;16.70;99.90;;;;;;6284873;22;20198;-86
2023/08/01 01:17:45;;;;;;;7.80;7.60;;;16.70;99.90;;;;;;6284715;22;20194;-85
2023/08/01 01:20:17;;;;;;;7.90;7.70;;;16.70;99.90;;;;;;6285444;22;20208;-86
2023/08/01 01:22:47;;;;;;;7.80;7.60;;;16.70;99.90;;;;;;6284557;22;20219;-85
2023/08/01 01:25:18;;;;;;;7.82;7.63;;;16.70;99.90;;;;;;6284532;22;20208;-85
2023/08/01 01:27:46;;;;;;;8.10;7.90;;;16.70;99.90;;;;;;6285135;22;20280;-85
2023/08/01 01:30:13;;;;;;;8.10;7.90;;;16.70;99.90;;;;;;6284610;22;20196;-86
2023/08/01 01:32:41;;;;;;;7.80;7.60;;;16.70;99.90;;;;;;6287270;22;20189;-85
2023/08/01 01:35:09;;;;;;;7.60;7.40;;;16.70;99.90;;;;;;6294008;22;20208;-85
2023/08/01 01:37:39;;;;;;;7.70;7.50;;;16.70;99.90;;;;;;6293122;22;20198;-85
2023/08/01 01:40:09;;;;;;;7.80;7.60;;;16.70;99.90;;;;;;6287001;22;20198;-86
2023/08/01 01:42:36;;;;;;;8.00;7.80;;;16.70;99.90;;;;;;6286171;22;20185;-85
2023/08/01 01:45:05;;;;;;;7.80;7.60;;;16.70;99.90;;;;;;6291299;22;20200;-86
2023/08/01 01:47:35;;;;;;;8.00;7.80;;;16.70;99.90;;;;;;6289865;22;20211;-85
2023/08/01 01:50:05;;;;;;;7.80;7.60;;;16.70;99.90;;;;;;6289677;22;20204;-86
2023/08/01 01:52:33;;;;;;;7.63;7.43;;;16.70;99.90;;;;;;6289709;22;20273;-85
2023/08/01 01:55:00;;;;;;;7.85;7.65;;;16.70;99.90;;;;;;6289366;22;20206;-85
2023/08/01 01:57:29;;;;;;;7.88;7.68;;;16.70;99.90;;;;;;6287653;22;20197;-85
2023/08/01 01:59:57;;;;;;;7.50;7.30;;;16.70;99.90;;;;;;6285096;22;20221;-86
2023/08/01 02:02:26;;;;;;;7.45;7.25;;;16.70;99.90;;;;;;6284581;22;20196;-86
2023/08/01 02:04:53;;;;;;;7.30;7.10;;;16.70;99.90;;;;;;6284682;22;20268;-86
2023/08/01 02:07:25;;;;;;;7.45;7.25;;;16.70;99.90;;;;;;6285240;22;20300;-86
2023/08/01 02:09:55;;;;;;;7.35;7.15;;;16.70;99.90;;;;;;6284880;22;20190;-86
2023/08/01 02:12:22;;;;;;;7.63;7.43;;;16.70;99.90;;;;;;6304033;22;20186;-86
2023/08/01 02:14:51;;;;;;;7.70;7.50;;;16.70;99.90;;;;;;6311250;22;20196;-86
2023/08/01 02:17:19;;;;;;;7.90;7.70;;;16.60;99.90;;;;;;6311663;22;20174;-86
2023/08/01 02:19:48;;;;;;;8.00;7.80;;;16.60;99.90;;;;;;6297461;22;20543;-86
2023/08/01 02:23:08;;;;;;;7.70;7.50;;;16.60;99.90;;;;;;6287691;22;20228;-86
2023/08/01 02:25:40;;;;;;;7.90;7.70;;;16.60;99.90;;;;;;6284987;22;20202;-86
2023/08/01 02:28:08;;;;;;;7.70;7.50;;;16.60;99.90;;;;;;6284558;22;20201;-86
2023/08/01 02:30:38;;;;;;;7.70;7.50;;;16.60;99.90;;;;;;6284520;22;20228;-86
2023/08/01 02:33:05;;;;;;;7.60;7.40;;;16.50;99.90;;;;;;6284696;22;20272;-86
2023/08/01 02:35:33;;;;;;;7.57;7.38;;;16.50;99.90;;;;;;6284555;22;20232;-87
2023/08/01 02:38:03;;;;;;;7.47;7.28;;;16.50;99.90;;;;;;6285523;22;20284;-86
2023/08/01 02:40:30;;;;;;;7.57;7.38;;;16.50;99.90;;;;;;6285008;22;20197;-86
2023/08/01 02:42:58;;;;;;;7.50;7.30;;;16.50;99.90;;;;;;6284567;22;20194;-86
2023/08/01 02:45:28;;;;;;;7.57;7.38;;;16.50;99.90;;;;;;6285071;22;20206;-86
2023/08/01 02:47:57;;;;;;;7.47;7.28;;;16.50;99.90;;;;;;6285313;22;20201;-86
2023/08/01 02:50:24;;;;;;;7.70;7.50;;;16.50;99.90;;;;;;6284940;22;20189;-87
2023/08/01 02:52:52;;;;;;;7.35;7.15;;;16.50;99.90;;;;;;6284809;22;20272;-87
2023/08/01 02:55:19;;;;;;;7.35;7.15;;;16.50;99.90;;;;;;6284952;22;20190;-87
2023/08/01 02:57:47;;;;;;;7.40;7.20;;;16.50;99.90;;;;;;6286046;22;20252;-86
2023/08/01 03:00:18;;;;;;;7.40;7.20;;;16.50;99.90;;;;;;6284668;22;20268;-87
2023/08/01 03:02:45;;;;;;;7.43;7.22;;;16.50;99.90;;;;;;6284761;22;20193;-86
2023/08/01 03:05:17;;;;;;;7.50;7.30;;;16.50;99.90;;;;;;6284300;22;20212;-87
2023/08/01 03:07:44;;;;;;;7.40;7.20;;;16.60;99.90;;;;;;6284508;22;20209;-87
2023/08/01 03:10:12;;;;;;;7.43;7.22;;;16.60;99.90;;;;;;6284413;22;20241;-87
2023/08/01 03:12:46;;;;;;;7.35;7.15;;;16.60;99.90;;;;;;6283530;22;20228;-87
2023/08/01 03:15:13;;;;;;;7.53;7.32;;;16.60;99.90;;;;;;6278966;22;20217;-79
2023/08/01 03:17:40;;;;;;;7.00;6.80;;;16.60;99.90;;;;;;6292934;22;20189;-78
2023/08/01 03:20:10;;;;;;;6.88;6.68;;;16.60;99.90;;;;;;6283982;22;20251;-79
2023/08/01 03:22:39;;;;;;;6.68;6.47;;;16.50;99.90;;;;;;6282916;22;20194;-79
2023/08/01 03:25:08;;;;;;;6.57;6.38;;;16.50;99.90;;;;;;6282593;22;20228;-79
2023/08/01 03:27:36;;;;;;;7.35;7.15;;;16.60;99.90;;;;;;6282971;22;20209;-78
2023/08/01 03:30:04;;;;;;;7.63;7.43;;;16.60;99.90;;;;;;6283363;22;20233;-79
2023/08/01 03:32:31;;;;;;;7.63;7.43;;;16.60;99.90;;;;;;6283217;22;20193;-79
2023/08/01 03:34:58;;;;;;;7.90;7.70;;;16.50;99.90;;;;;;6282946;22;20194;-80
2023/08/01 03:37:25;;;;;;;7.70;7.50;;;16.60;99.90;;;;;;6284310;22;20201;-78
2023/08/01 03:39:53;;;;;;;7.60;7.40;;;16.60;99.90;;;;;;6283818;22;20244;-79
2023/08/01 03:42:20;;;;;;;7.70;7.50;;;16.60;99.90;;;;;;6283517;22;20198;-79
2023/08/01 03:44:47;;;;;;;7.32;7.13;;;16.60;99.90;;;;;;6283956;22;20284;-79
2023/08/01 03:47:14;;;;;;;7.18;6.97;;;16.60;99.90;;;;;;6283911;22;20215;-79
2023/08/01 03:49:41;;;;;;;7.50;7.30;;;16.60;99.90;;;;;;6285069;22;20194;-80
2023/08/01 03:52:09;;;;;;;7.25;7.05;;;16.60;99.90;;;;;;6284482;22;20276;-79
2023/08/01 03:54:36;;;;;;;6.90;6.70;;;16.50;99.90;;;;;;6285041;22;20703;-79
2023/08/01 03:57:06;;;;;;;7.28;7.07;;;16.50;99.90;;;;;;6285398;22;20241;-78
2023/08/01 03:59:33;;;;;;;7.43;7.22;;;16.50;99.90;;;;;;6289093;22;21055;-80
2023/08/01 04:02:00;;;;;;;7.30;7.10;;;16.40;99.90;;;;;;6289385;22;20212;-80
2023/08/01 04:04:28;;;;;;;7.30;7.10;;;16.40;99.90;;;;;;6288909;22;20673;-80
2023/08/01 04:06:55;;;;;;;7.30;7.10;;;16.40;99.90;;;;;;6288036;22;20257;-80
2023/08/01 04:09:22;;;;;;;7.32;7.13;;;16.40;99.90;;;;;;6294895;22;20208;-79
2023/08/01 04:11:49;;;;;;;7.60;7.40;;;16.40;99.90;;;;;;6288801;22;20206;-80
2023/08/01 04:14:17;;;;;;;7.47;7.28;;;16.40;99.90;;;;;;6286432;22;20229;-80
2023/08/01 04:16:45;;;;;;;7.18;6.97;;;16.30;99.90;;;;;;6287150;22;20682;-80
2023/08/01 04:19:12;;;;;;;7.25;7.05;;;16.30;99.90;;;;;;6288107;22;20284;-81
2023/08/01 04:21:40;;;;;;;7.18;6.97;;;16.30;99.90;;;;;;6287960;22;20209;-80
2023/08/01 04:24:07;;;;;;;7.28;7.07;;;16.40;99.90;;;;;;6288830;22;20288;-80
2023/08/01 04:26:34;;;;;;;7.05;6.85;;;16.40;99.90;;;;;;6289457;22;20216;-80
2023/08/01 04:29:01;;;;;;;7.45;7.25;;;16.40;99.90;;;;;;6288666;22;20203;-80
2023/08/01 04:31:29;;;;;;;7.20;7.00;;;16.40;99.90;;;;;;6288973;22;20201;-80
2023/08/01 04:33:56;;;;;;;7.25;7.05;;;16.40;99.90;;;;;;6289761;22;20208;-80
2023/08/01 04:36:23;;;;;;;7.30;7.10;;;16.40;99.90;;;;;;6289437;22;20293;-80
2023/08/01 04:38:50;;;;;;;7.25;7.05;;;16.40;99.90;;;;;;6289848;22;20220;-81
2023/08/01 04:41:17;;;;;;;7.13;6.93;;;16.40;99.90;;;;;;6290091;22;20235;-80
2023/08/01 04:43:44;;;;;;;7.22;7.03;;;16.40;99.90;;;;;;6289803;22;20206;-80
2023/08/01 04:46:11;;;;;;;7.20;7.00;;;16.40;99.90;;;;;;6291782;22;20236;-79
2023/08/01 04:48:40;;;;;;;7.10;6.90;;;16.40;99.90;;;;;;6291333;22;20264;-80
2023/08/01 04:51:07;;;;;;;7.20;7.00;;;16.40;99.90;;;;;;6290754;22;20206;-80
2023/08/01 04:53:34;;;;;;;7.15;6.95;;;16.40;99.90;;;;;;6294288;22;20197;-79
2023/08/01 04:56:01;;;;;;;7.20;7.00;;;16.40;99.90;;;;;;6292435;22;20207;-81
2023/08/01 04:58:28;;;;;;;7.45;7.25;;;16.40;99.90;;;;;;6295501;22;20265;-80
2023/08/01 05:00:55;;;;;;;7.30;7.10;;;16.40;99.90;;;;;;6296159;22;20253;-79
2023/08/01 05:03:22;;;;;;;7.43;7.22;;;16.40;99.90;;;;;;6306813;22;20281;-81
2023/08/01 05:05:50;;;;;;;7.50;7.30;;;16.40;99.90;;;;;;6292477;22;20202;-80
2023/08/01 05:08:17;;;;;;;7.65;7.45;;;16.40;99.90;;;;;;6292528;22;20211;-80
2023/08/01 05:10:44;;;;;;;7.55;7.35;;;16.50;99.90;;;;;;6290346;22;20206;-80
2023/08/01 05:13:11;;;;;;;7.70;7.50;;;16.50;99.90;;;;;;6291935;22;20271;-80
2023/08/01 05:15:38;;;;;;;7.70;7.50;;;16.50;99.90;;;;;;6288524;22;20209;-80
2023/08/01 05:18:05;;;;;;;7.80;7.60;;;16.60;99.90;;;;;;6288749;22;20205;-81
2023/08/01 05:20:33;;;;;;;7.95;7.75;;;16.60;99.90;;;;;;6289068;22;20220;-80
2023/08/01 05:23:01;;;;;;;8.02;7.82;;;16.60;99.90;;;;;;6288750;22;20209;-80
2023/08/01 05:25:28;;;;;;;8.02;7.82;;;16.60;99.90;;;;;;6288465;22;20221;-80
2023/08/01 05:27:55;;;;;;;7.53;7.32;;;16.70;99.90;;;;;;6289587;22;20213;-80
2023/08/01 05:30:22;;;;;;;7.30;7.10;;;16.70;99.90;;;;;;6289276;22;20231;-80
2023/08/01 05:32:49;;;;;;;7.40;7.20;;;16.70;99.90;;;;;;6289171;22;20198;-80
2023/08/01 05:35:18;;;;;;;7.70;7.50;;;16.70;99.90;;;;;;6290221;22;20197;-81
2023/08/01 05:37:45;;;;;;;7.53;7.32;;;16.70;99.90;;;;;;6290394;22;20197;-80
2023/08/01 05:40:14;;;;;;;7.18;6.97;;;16.80;99.90;;;;;;6289754;22;20223;-80
2023/08/01 05:42:41;;;;;;;7.55;7.35;;;16.80;99.90;;;;;;6288678;22;20214;-81
2023/08/01 05:45:11;;;;;;;7.43;7.22;;;16.90;99.90;;;;;;6288617;22;20206;-80
2023/08/01 05:47:40;;;;;;;7.70;7.50;;;16.90;99.90;;;;;;6289098;22;20201;-80
2023/08/01 05:50:08;;;;;;;7.60;7.40;;;17.00;99.90;;;;;;6287707;22;20260;-80
2023/08/01 05:52:35;;;;;;;7.95;7.75;;;17.00;99.90;;;;;;6288397;22;20216;-80
2023/08/01 05:55:02;;;;;;;7.80;7.60;;;17.00;99.90;;;;;;6298383;22;20193;-80
2023/08/01 05:57:31;;;;;;;7.80;7.60;;;17.00;99.90;;;;;;6297952;22;20217;-79
2023/08/01 05:59:58;;;;;;;7.60;7.40;;;17.00;99.90;;;;;;6310219;22;20258;-79
2023/08/01 06:02:25;;;;;;;7.43;7.22;;;17.00;99.90;;;;;;6309006;22;20170;-79
2023/08/01 06:04:52;;;;;;;7.40;7.20;;;17.10;99.90;;;;;;6310180;22;20182;-79
2023/08/01 06:07:22;;;;;;;7.40;7.20;;;17.10;99.90;;;;;;6303718;22;20281;-80
2023/08/01 06:09:51;;;;;;;7.50;7.30;;;17.10;99.90;;;;;;6291769;22;21028;-80
2023/08/01 06:12:18;;;;;;;7.22;7.03;;;17.10;99.90;;;;;;6295370;22;20197;-79
2023/08/01 06:14:48;;;;;;;7.35;7.15;;;17.20;99.90;;;;;;6294320;22;20205;-80
2023/08/01 06:17:15;;;;;;;7.40;7.20;;;17.20;99.90;;;;;;6294819;22;20213;-80
2023/08/01 06:19:42;;;;;;;7.13;6.93;;;17.10;99.90;;;;;;6291348;22;20197;-79
2023/08/01 06:22:13;;;;;;;7.30;7.10;;;17.20;99.90;;;;;;6291566;22;20245;-80
2023/08/01 06:24:43;;;;;;;7.15;6.95;;;17.20;99.90;;;;;;6289912;22;20312;-78
2023/08/01 06:27:11;;;;;;;6.90;6.70;;;17.20;99.90;;;;;;6289723;22;20202;-78
2023/08/01 06:29:38;;;;;;;6.57;6.38;;;17.30;99.90;;;;;;6289359;22;20322;-80
2023/08/01 06:32:08;;;;;;;6.60;6.40;;;17.30;99.90;;;;;;6290950;22;20229;-80
2023/08/01 06:34:35;;;;;;;6.55;6.35;;;17.30;99.90;;;;;;6292557;22;20260;-79
2023/08/01 06:37:03;;;;;;;6.47;6.28;;;17.30;99.90;;;;;;6292582;22;20201;-79
2023/08/01 06:39:30;;;;;;;6.70;6.50;;;17.30;99.90;;;;;;6290362;22;20224;-81
2023/08/01 06:41:57;;;;;;;6.82;6.63;;;17.40;99.90;;;;;;6289048;22;20193;-81
2023/08/01 06:44:25;;;;;;;7.00;6.80;;;17.30;99.90;;;;;;6289232;22;20735;-80
2023/08/01 06:46:52;;;;;;;6.80;6.60;;;17.30;99.90;;;;;;6300152;22;20212;-80
2023/08/01 06:49:20;;;;;;;6.80;6.60;;;17.30;99.90;;;;;;6302685;22;20269;-80
2023/08/01 06:51:47;;;;;;;7.00;6.80;;;17.40;99.90;;;;;;6300166;22;20275;-79
2023/08/01 06:54:14;;;;;;;7.25;7.05;;;17.40;99.90;;;;;;6301394;22;20189;-80
2023/08/01 06:56:47;;;;;;;6.90;6.70;;;17.30;99.90;;;;;;6301086;22;20209;-80
2023/08/01 06:59:14;;;;;;;7.00;6.80;;;17.30;99.90;;;;;;6302532;22;20193;-79
2023/08/01 07:01:43;;;;;;;7.05;6.85;;;17.30;99.90;;;;;;6301568;22;20198;-80
2023/08/01 07:04:10;;;;;;;6.97;6.78;;;17.20;99.90;;;;;;6301228;22;20216;-80
2023/08/01 07:06:38;;;;;;;6.97;6.78;;;17.20;99.90;;;;;;6299581;22;20205;-81
2023/08/01 07:09:06;;;;;;;7.00;6.80;;;17.20;99.90;;;;;;6291921;22;20209;-81
2023/08/01 07:11:33;;;;;;;7.10;6.90;;;17.20;99.90;;;;;;6291935;22;20209;-81
2023/08/01 07:14:00;;;;;;;7.00;6.80;;;17.20;99.90;;;;;;6292742;22;20197;-79
2023/08/01 07:16:27;;;;;;;6.78;6.57;;;17.20;99.90;;;;;;6295275;22;20205;-80
2023/08/01 07:18:56;;;;;;;6.85;6.65;;;17.20;99.90;;;;;;6299857;22;20189;-80
2023/08/01 07:21:23;;;;;;;6.60;6.40;;;17.20;99.90;;;;;;6290827;22;20284;-80
2023/08/01 07:23:52;;;;;;;6.80;6.60;;;17.20;99.90;;;;;;6293829;22;20193;-80
2023/08/01 07:26:20;;;;;;;6.93;6.72;;;17.20;99.90;;;;;;6296447;22;20213;-80
2023/08/01 07:28:47;;;;;;;6.68;6.47;;;17.20;99.90;;;;;;6291065;22;20232;-81
2023/08/01 07:31:14;;;;;;;6.50;6.30;;;17.20;99.90;;;;;;6290039;22;20193;-81
2023/08/01 07:33:41;;;;;;;6.70;6.50;;;17.20;99.90;;;;;;6291334;22;20201;-80
2023/08/01 07:36:08;;;;;;;7.20;7.00;;;17.30;99.90;;;;;;6292809;22;20207;-80
2023/08/01 07:38:35;;;;;;;7.20;7.00;;;17.20;99.90;;;;;;6294104;22;20203;-80
2023/08/01 07:41:07;;;;;;;7.18;6.97;;;17.20;99.90;;;;;;6303058;22;20240;-80
2023/08/01 07:43:34;;;;;;;6.97;6.78;;;17.20;99.90;;;;;;6301742;22;20264;-80
2023/08/01 07:46:01;;;;;;;6.90;6.70;;;17.20;99.90;;;;;;6291966;22;20205;-80
2023/08/01 07:48:28;;;;;;;6.80;6.60;;;17.20;99.90;;;;;;6291177;22;20221;-80
2023/08/01 07:50:55;;;;;;;6.50;6.30;;;17.10;99.90;;;;;;6291582;22;20296;-80
2023/08/01 07:53:22;;;;;;;6.60;6.40;;;17.20;99.90;;;;;;6291243;22;20222;-81
2023/08/01 07:55:49;;;;;;;6.40;6.20;;;17.10;99.90;;;;;;6289435;22;20233;-80
2023/08/01 07:58:18;;;;;;;6.47;6.28;;;17.10;99.90;;;;;;6291300;22;20249;-80
2023/08/01 08:00:45;;;;;;;6.70;6.50;;;17.10;99.90;;;;;;6291885;22;20212;-81
2023/08/01 08:03:12;;;;;;;6.50;6.30;;;17.10;99.90;;;;;;6290552;22;20197;-80
2023/08/01 08:05:40;;;;;;;6.95;6.75;;;17.10;99.90;;;;;;6291598;22;20229;-81
2023/08/01 08:08:07;;;;;;;6.95;6.75;;;17.10;99.90;;;;;;6291388;22;20248;-81
2023/08/01 08:10:34;;;;;;;7.00;6.80;;;17.10;99.90;;;;;;6290266;22;20197;-79
2023/08/01 08:13:01;;;;;;;7.00;6.80;;;17.00;99.90;;;;;;6289919;22;20204;-80
2023/08/01 08:15:33;;;;;;;6.80;6.60;;;17.00;99.90;;;;;;6290670;22;20244;-79
2023/08/01 08:18:01;;;;;;;7.00;6.80;;;17.00;99.90;;;;;;6291749;22;20247;-80
2023/08/01 08:20:28;;;;;;;6.55;6.35;;;16.90;99.90;;;;;;6290914;22;20190;-80
2023/08/01 08:22:54;;;;;;;6.70;6.50;;;16.90;99.90;;;;;;6290431;22;20204;-80
2023/08/01 08:25:22;;;;;;;6.70;6.50;;;16.80;99.90;;;;;;6289916;22;20198;-80
2023/08/01 08:27:50;;;;;;;6.65;6.45;;;16.90;99.90;;;;;;6291507;22;20212;-81
2023/08/01 08:30:17;;;;;;;6.53;6.32;;;16.90;99.90;;;;;;6288887;22;20220;-78
2023/08/01 08:32:45;;;;;;;6.60;6.40;;;16.90;99.90;;;;;;6289212;22;20237;-78
2023/08/01 08:35:12;;;;;;;6.60;6.40;;;16.90;99.90;;;;;;6285276;22;20208;-77
2023/08/01 08:37:39;;;;;;;6.80;6.60;;;16.90;99.90;;;;;;6287766;22;20200;-80
2023/08/01 08:40:08;;;;;;;6.70;6.50;;;16.90;99.90;;;;;;6285884;22;20198;-79
2023/08/01 08:42:35;;;;;;;6.43;6.22;;;16.90;99.90;;;;;;6286160;22;20201;-79
2023/08/01 08:45:04;;;;;;;6.47;6.28;;;16.80;99.90;;;;;;6285931;22;20201;-79
2023/08/01 08:47:35;;;;;;;6.88;6.68;;;16.80;99.90;;;;;;6286630;22;20202;-79
2023/08/01 08:50:06;;;;;;;6.95;6.75;;;16.80;99.90;;;;;;6286849;22;20228;-78
2023/08/01 08:52:33;;;;;;;7.00;6.80;;;16.80;99.90;;;;;;6286518;22;20205;-79
2023/08/01 08:55:02;;;;;;;6.97;6.78;;;16.70;99.90;;;;;;6287667;22;20221;-79
2023/08/01 08:57:31;;;;;;;7.00;6.80;;;16.60;99.90;;;;;;6286641;22;20257;-79
2023/08/01 08:59:58;;;;;;;7.00;6.80;;;16.60;99.90;;;;;;6286695;22;20225;-79
2023/08/01 09:02:26;;;;;;;7.05;6.85;;;16.50;99.90;;;;;;6287212;22;20253;-79
2023/08/01 09:04:53;;;;;;;7.10;6.90;;;16.40;99.90;;;;;;6286549;22;20261;-79
2023/08/01 09:07:25;;;;;;;6.80;6.60;;;16.30;99.90;;;;;;6286556;22;20237;-78
2023/08/01 09:09:52;;;;;;;7.30;7.10;;;16.30;99.90;;;;;;6288131;22;20202;-78
2023/08/01 09:12:19;;;;;;;7.10;6.90;;;16.40;99.90;;;;;;6287821;22;20272;-79
2023/08/01 09:14:48;;;;;;;7.00;6.80;;;16.40;99.90;;;;;;6286437;22;20194;-78
2023/08/01 09:20:50;;;;;;;7.22;7.03;;;16.60;99.90;;;;;;6227906;22;20238;-90
2023/08/01 09:24:35;;;;;;;7.30;7.10;;;16.70;99.90;;;;;;6227762;22;20507;-89
2023/08/01 09:28:13;;;;;;;;;;;;;;;;;;;;;
2023/08/01 09:39:06;;;;;;;7.40;7.20;;;17.20;99.90;;;;;;5912356;24;20209;-90
2023/08/01 11:15:59;;;;;;;;;;;;;;;;;;;;;
2023/08/01 11:54:11;;;;;;;9.90;9.60;;;19.20;99.90;;;;;;6221492;22;20237;-89
2023/08/01 11:56:46;;;;;;;10.20;9.90;;;19.10;99.90;;;;;;6212326;23;20195;-90
2023/08/01 11:59:40;;;;;;;10.30;10.00;;;19.10;99.90;;;;;;6228834;23;20194;-89
2023/08/01 12:02:35;;;;;;;10.10;9.80;;;18.90;99.90;;;;;;6228303;22;20202;-90
2023/08/01 12:05:07;;;;;;;10.45;10.15;;;18.80;99.90;;;;;;6227375;23;20191;-90
2023/08/01 12:07:44;;;;;;;10.40;10.10;;;18.80;99.90;;;;;;6229157;23;20227;-89
2023/08/01 12:10:33;;;;;;;10.45;10.15;;;18.70;99.90;;;;;;6239219;22;20199;-89
2023/08/01 12:13:33;;;;;;;10.38;10.07;;;18.80;99.90;;;;;;6249269;22;20194;-90
2023/08/01 12:16:31;;;;;;;;;;;;;;;;;;;;;
2023/08/01 12:19:38;;;;;;;;;;;;;;;;;;;;;
2023/08/01 12:22:47;;;;;;;10.38;10.07;;;19.80;99.90;;;;;;6232182;23;20205;-90
2023/08/01 12:26:31;;;;;;;10.45;10.15;;;20.40;99.90;;;;;;6229962;22;20210;-90
2023/08/01 12:29:29;;;;;;;10.95;10.65;;;21.10;99.90;;;;;;6244935;22;20191;-90
2023/08/01 12:36:14;;;;;;;11.10;10.80;;;21.90;99.90;;;;;;6200767;22;20206;-90
2023/08/01 12:46:57;;;;;;;;;;;;;;;;;;;;;
2023/08/01 12:50:21;;;;;;;;;;;;;;;;;;;;;
2023/08/01 12:54:00;;;;;;;;;;;;;;;;;;;;;
2023/08/01 12:57:44;;;;;;;;;;;;;;;;;;;;;
2023/08/01 13:01:03;;;;;;;10.52;10.23;;;22.90;99.90;;;;;;6230898;22;20208;-90
2023/08/01 13:04:31;;;;;;;;;;;;;;;;;;;;;
2023/08/01 13:15:28;;;;;;;10.30;10.00;;;20.70;99.90;;;;;;6241943;22;20211;-90
2023/08/01 13:18:59;;;;;;;10.13;9.82;;;20.40;99.90;;;;;;6217987;22;20180;-89
2023/08/01 13:22:10;;;;;;;10.20;9.90;;;20.20;99.90;;;;;;6218911;22;20188;-90
2023/08/01 13:25:46;;;;;;;;;;;;;;;;;;;;;
2023/08/01 13:29:22;;;;;;;10.70;10.40;;;20.00;99.90;;;;;;6172525;23;20219;-89
2023/08/01 13:33:14;;;;;;;10.88;10.57;;;20.20;99.90;;;;;;6211316;23;20183;-90
2023/08/01 13:36:10;;;;;;;10.85;10.55;;;21.10;99.90;;;;;;6169626;23;20231;-90
2023/08/01 14:45:50;;;;;;;9.85;9.55;;;19.00;99.90;;;;;;5986125;23;20203;-91
2023/08/01 15:07:51;;;;;;;;;;;;;;;;;;;;;
2023/08/01 15:17:24;;;;;;;10.90;10.60;;;23.00;99.90;;;;;;6172509;22;20261;-76
2023/08/01 15:19:52;;;;;;;10.63;10.32;;;23.30;99.90;;;;;;6251889;22;20200;-78
2023/08/01 15:22:20;;;;;;;10.38;10.07;;;23.20;99.90;;;;;;6251193;22;20206;-76
2023/08/01 15:24:47;;;;;;;10.55;10.25;;;23.30;99.90;;;;;;6252273;22;20212;-78
2023/08/01 15:27:14;;;;;;;10.63;10.32;;;23.50;99.90;;;;;;6252038;22;20213;-78
2023/08/01 15:29:41;;;;;;;10.50;10.20;;;23.70;99.90;;;;;;6252113;22;20229;-78
2023/08/01 15:32:09;;;;;;;10.20;9.90;;;23.70;99.90;;;;;;6264658;22;20198;-78
2023/08/01 15:34:37;;;;;;;10.32;10.02;;;23.80;99.90;;;;;;6277041;22;20201;-78
2023/08/01 15:37:06;;;;;;;10.50;10.20;;;23.80;99.90;;;;;;6261046;22;20220;-78
2023/08/01 15:39:34;;;;;;;10.52;10.23;;;23.90;99.90;;;;;;6253961;22;20218;-79
2023/08/01 15:42:01;;;;;;;10.10;9.80;;;24.00;99.90;;;;;;6252503;22;20194;-78
2023/08/01 15:44:28;;;;;;;10.20;9.90;;;24.10;99.90;;;;;;6253431;22;20644;-78
2023/08/01 15:46:55;;;;;;;10.20;9.90;;;24.00;99.90;;;;;;6253736;22;20262;-79
2023/08/01 15:49:22;;;;;;;10.32;10.02;;;23.70;99.90;;;;;;6252752;22;20234;-79
2023/08/01 15:51:50;;;;;;;10.15;9.85;;;23.60;99.90;;;;;;6253359;22;20281;-79
2023/08/01 15:54:17;;;;;;;10.10;9.80;;;23.80;99.90;;;;;;6253727;22;20197;-79
2023/08/01 15:56:44;;;;;;;10.50;10.20;;;24.00;99.90;;;;;;6253366;22;20227;-78
2023/08/01 15:59:11;;;;;;;10.57;10.27;;;24.10;99.90;;;;;;6253337;22;20201;-78
2023/08/01 16:01:38;;;;;;;10.60;10.30;;;24.30;99.90;;;;;;6252626;22;20198;-79
2023/08/01 16:04:05;;;;;;;10.63;10.32;;;24.30;99.90;;;;;;6253368;22;20248;-79
2023/08/01 16:06:32;;;;;;;10.40;10.10;;;24.50;99.90;;;;;;6253042;22;20673;-79
2023/08/01 16:09:01;;;;;;;10.60;10.30;;;24.70;99.90;;;;;;6253207;22;20197;-79
2023/08/01 16:11:28;;;;;;;10.30;10.00;;;24.50;99.90;;;;;;6253101;22;20214;-79
2023/08/01 16:13:55;;;;;;;10.25;9.95;;;24.60;99.90;;;;;;6253885;22;20196;-79
2023/08/01 16:16:22;;;;;;;10.65;10.35;;;24.50;99.90;;;;;;6253603;22;20284;-79
2023/08/01 16:18:49;;;;;;;10.43;10.13;;;24.60;99.90;;;;;;6253460;22;20276;-80
2023/08/01 16:21:16;;;;;;;10.32;10.02;;;24.50;99.90;;;;;;6252719;22;20199;-78
2023/08/01 16:23:43;;;;;;;10.73;10.43;;;24.40;99.90;;;;;;6260340;22;20210;-78
2023/08/01 16:26:11;;;;;;;10.30;10.00;;;24.30;99.90;;;;;;6256529;22;20229;-79
2023/08/01 16:28:38;;;;;;;10.43;10.13;;;24.40;99.90;;;;;;6255625;22;20204;-79
2023/08/01 16:31:06;;;;;;;10.07;9.77;;;24.60;99.90;;;;;;6253829;22;20210;-78
2023/08/01 16:33:34;;;;;;;10.10;9.80;;;24.80;99.90;;;;;;6255323;22;20199;-79
2023/08/01 16:36:00;;;;;;;10.40;10.10;;;25.00;99.90;;;;;;6254772;22;20244;-79
2023/08/01 16:38:28;;;;;;;10.57;10.27;;;24.90;99.90;;;;;;6254492;22;20262;-79
2023/08/01 16:40:55;;;;;;;10.55;10.25;;;25.00;99.90;;;;;;6254134;22;20237;-79
2023/08/01 16:43:23;;;;;;;10.43;10.13;;;24.90;99.90;;;;;;6253906;22;20190;-79
2023/08/01 16:45:50;;;;;;;10.30;10.00;;;24.40;99.90;;;;;;6253690;22;20298;-78
2023/08/01 16:48:17;;;;;;;10.70;10.40;;;24.30;99.90;;;;;;6253957;22;20210;-80
2023/08/01 16:50:47;;;;;;;10.40;10.10;;;24.20;99.90;;;;;;6254077;22;20203;-79
2023/08/01 16:53:14;;;;;;;10.45;10.15;;;24.20;99.90;;;;;;6254106;22;20190;-77
2023/08/01 16:55:42;;;;;;;10.48;10.18;;;24.30;99.90;;;;;;6253260;22;20209;-78
2023/08/01 16:58:09;;;;;;;10.18;9.88;;;24.40;99.90;;;;;;6252891;22;20252;-78
2023/08/01 17:00:38;;;;;;;10.00;9.70;;;24.80;99.90;;;;;;6253160;22;20226;-79
2023/08/01 17:03:05;;;;;;;10.25;9.95;;;25.20;99.90;;;;;;6252608;22;20281;-78
2023/08/01 17:05:33;;;;;;;10.40;10.10;;;25.30;99.90;;;;;;6252904;22;20280;-78
2023/08/01 17:08:00;;;;;;;10.50;10.20;;;25.40;99.90;;;;;;6252458;22;20229;-78
2023/08/01 17:10:27;;;;;;;9.90;9.60;;;25.60;99.90;;;;;;6252520;22;20210;-77
2023/08/01 17:12:54;;;;;;;9.80;9.50;;;25.70;99.90;;;;;;6252940;22;20210;-77
2023/08/01 17:15:22;;;;;;;10.05;9.75;;;25.70;99.90;;;;;;6255036;22;20190;-78
2023/08/01 17:17:50;;;;;;;9.90;9.60;;;25.60;99.90;;;;;;6260590;22;20216;-78
2023/08/01 17:20:18;;;;;;;10.00;9.70;;;25.20;99.90;;;;;;6253881;22;20235;-78
2023/08/01 17:22:45;;;;;;;10.30;10.00;;;24.80;99.90;;;;;;6254218;22;20209;-78
2023/08/01 17:25:12;;;;;;;10.15;9.85;;;24.50;99.90;;;;;;6253757;22;20205;-77
2023/08/01 17:27:39;;;;;;;10.40;10.10;;;24.10;99.90;;;;;;6252920;22;20618;-77
2023/08/01 17:30:08;;;;;;;10.60;10.30;;;23.90;99.90;;;;;;6252883;22;20198;-78
2023/08/01 17:32:35;;;;;;;10.65;10.35;;;23.70;99.90;;;;;;6252574;22;20728;-77
2023/08/01 17:35:04;;;;;;;10.27;9.98;;;23.50;99.90;;;;;;6252875;22;20195;-77